PWSweather.com
Personal Weather Stations
Station Observations
JOE4SPEED
Jupiter, Fl, Jupiter, FL 33458

Jupiter, FlJupiter, FL 33458

Lat: 26.9373, Lon: -80.1101

Elevation: 12

Station Type: Davis VP 2

http://www.joe4speed.com/wxindex.php

Latest ConditionsUpdated 12:00:02 PM EST Sunday, Feb 7, 2016
Currently Today's Max Today's Min Today's Average
Temperature 55.0°F12.8°C 60.2°F15.7°C 49.7°F9.8°C 53.2°F11.8°C
Dew Point 47.6°F8.7°C 58.2°F14.6°C 45.7°F7.6°C 49.6°F9.8°C
Winds 9.2 mph W14.8 kmh W 12.7 mph WNW20.4 kmh WNW - 7.5 mph 12.1 kmh
Wind Gusts 16.1 mph25.9 kmh 19.6 mph31.5 kmh - -
Humidity 76% 93% 76% 88%
Pressure 30.03 in1016.9 mb 30.04 in1017.3 mb 29.91 in1012.9 mb -
Precipitation - 0.03 in0.8 mm - -
Hour Temp Dew Point Humidity Winds Wind Gusts Pressure Precip Precip Rate Daily Precip Total
12:00 PM 55.0°F12.8°C 47.6°F8.7°C 76% 9.2 mph W14.8 kmh W 16.1 mph25.9 kmh 30.03 in1016.9 mb - 0.00 in0.0 mm 0.03 in0.8 mm
11:50 AM 54.6°F12.6°C 47.9°F8.8°C 78% 9.2 mph WNW14.8 kmh WNW 12.7 mph20.4 kmh 30.03 in1016.9 mb - 0.00 in0.0 mm 0.03 in0.8 mm
11:40 AM 55.1°F12.8°C 48.7°F9.3°C 79% 8.1 mph W13.0 kmh W 13.8 mph22.2 kmh 30.03 in1016.9 mb - 0.00 in0.0 mm 0.03 in0.8 mm
11:30 AM 54.5°F12.5°C 48.1°F8.9°C 79% 8.1 mph WSW13.0 kmh WSW 11.5 mph18.5 kmh 30.03 in1016.9 mb - 0.00 in0.0 mm 0.03 in0.8 mm
11:20 AM 53.3°F11.8°C 47.6°F8.7°C 81% 8.1 mph NW13.0 kmh NW 12.7 mph20.4 kmh 30.03 in1016.9 mb - 0.00 in0.0 mm 0.03 in0.8 mm
11:10 AM 52.5°F11.4°C 46.8°F8.2°C 81% 10.4 mph W16.7 kmh W 18.4 mph29.6 kmh 30.03 in1016.9 mb - 0.00 in0.0 mm 0.03 in0.8 mm
11:00 AM 52.5°F11.4°C 47.2°F8.4°C 82% 11.5 mph WNW18.5 kmh WNW 16.1 mph25.9 kmh 30.04 in1017.3 mb - 0.00 in0.0 mm 0.03 in0.8 mm
10:50 AM 52.1°F11.2°C 47.0°F8.3°C 83% 8.1 mph WNW13.0 kmh WNW 15.0 mph24.1 kmh 30.03 in1016.9 mb - 0.00 in0.0 mm 0.03 in0.8 mm
10:40 AM 52.0°F11.1°C 47.0°F8.3°C 83% 8.1 mph WNW13.0 kmh WNW 15.0 mph24.1 kmh 30.03 in1016.9 mb - 0.00 in0.0 mm 0.03 in0.8 mm
10:30 AM 52.2°F11.2°C 47.5°F8.6°C 84% 10.4 mph W16.7 kmh W 18.4 mph29.6 kmh 30.03 in1016.9 mb - 0.00 in0.0 mm 0.03 in0.8 mm
10:20 AM 52.1°F11.2°C 47.7°F8.7°C 85% 9.2 mph WNW14.8 kmh WNW 19.6 mph31.5 kmh 30.02 in1016.6 mb - 0.00 in0.0 mm 0.03 in0.8 mm
10:10 AM 51.6°F10.9°C 47.3°F8.5°C 85% 5.8 mph W9.3 kmh W 9.2 mph14.8 kmh 30.00 in1015.9 mb - 0.00 in0.0 mm 0.03 in0.8 mm
10:00 AM 51.5°F10.8°C 47.1°F8.4°C 85% 5.8 mph W9.3 kmh W 15.0 mph24.1 kmh 30.01 in1016.3 mb - 0.00 in0.0 mm 0.03 in0.8 mm
09:50 AM 51.5°F10.8°C 47.2°F8.4°C 85% 6.9 mph WNW11.1 kmh WNW 13.8 mph22.2 kmh 30.02 in1016.6 mb - 0.00 in0.0 mm 0.03 in0.8 mm
09:40 AM 51.3°F10.7°C 46.9°F8.3°C 85% 5.8 mph WNW9.3 kmh WNW 11.5 mph18.5 kmh 30.01 in1016.3 mb - 0.00 in0.0 mm 0.03 in0.8 mm
09:30 AM 51.2°F10.7°C 46.8°F8.2°C 85% 5.8 mph W9.3 kmh W 11.5 mph18.5 kmh 30.00 in1015.9 mb - 0.00 in0.0 mm 0.03 in0.8 mm
09:20 AM 51.2°F10.7°C 46.8°F8.2°C 85% 5.8 mph W9.3 kmh W 12.7 mph20.4 kmh 30.00 in1015.9 mb - 0.00 in0.0 mm 0.03 in0.8 mm
09:10 AM 51.1°F10.6°C 46.7°F8.2°C 85% 5.8 mph W9.3 kmh W 8.1 mph13.0 kmh 30.00 in1015.9 mb - 0.00 in0.0 mm 0.03 in0.8 mm
09:00 AM 51.1°F10.6°C 46.7°F8.2°C 85% 5.8 mph WNW9.3 kmh WNW 9.2 mph14.8 kmh 29.99 in1015.6 mb - 0.00 in0.0 mm 0.03 in0.8 mm
08:50 AM 50.8°F10.4°C 46.5°F8.1°C 85% 5.8 mph NW9.3 kmh NW 11.5 mph18.5 kmh 30.00 in1015.9 mb - 0.00 in0.0 mm 0.03 in0.8 mm
08:40 AM 50.7°F10.4°C 46.4°F8.0°C 85% 6.9 mph W11.1 kmh W 9.2 mph14.8 kmh 30.00 in1015.9 mb - 0.00 in0.0 mm 0.03 in0.8 mm
08:30 AM 50.5°F10.3°C 46.2°F7.9°C 85% 6.9 mph WNW11.1 kmh WNW 12.7 mph20.4 kmh 30.00 in1015.9 mb - 0.00 in0.0 mm 0.03 in0.8 mm
08:20 AM 50.3°F10.2°C 46.3°F7.9°C 86% 9.2 mph WNW14.8 kmh WNW 13.8 mph22.2 kmh 30.00 in1015.9 mb - 0.00 in0.0 mm 0.03 in0.8 mm
08:10 AM 50.1°F10.1°C 46.1°F7.8°C 86% 9.2 mph W14.8 kmh W 15.0 mph24.1 kmh 29.99 in1015.6 mb - 0.00 in0.0 mm 0.03 in0.8 mm
08:00 AM 49.9°F9.9°C 46.2°F7.9°C 87% 8.1 mph WNW13.0 kmh WNW 12.7 mph20.4 kmh 29.98 in1015.2 mb - 0.00 in0.0 mm 0.03 in0.8 mm
07:50 AM 49.7°F9.8°C 46.0°F7.8°C 87% 8.1 mph WNW13.0 kmh WNW 13.8 mph22.2 kmh 29.97 in1014.9 mb - 0.00 in0.0 mm 0.03 in0.8 mm
07:40 AM 49.7°F9.8°C 46.0°F7.8°C 87% 6.9 mph W11.1 kmh W 10.4 mph16.7 kmh 29.97 in1014.9 mb - 0.00 in0.0 mm 0.03 in0.8 mm
07:30 AM 49.7°F9.8°C 45.7°F7.6°C 86% 9.2 mph WNW14.8 kmh WNW 12.7 mph20.4 kmh 29.97 in1014.9 mb - 0.00 in0.0 mm 0.03 in0.8 mm
07:20 AM 49.9°F9.9°C 45.9°F7.7°C 86% 9.2 mph WNW14.8 kmh WNW 18.4 mph29.6 kmh 29.97 in1014.9 mb - 0.00 in0.0 mm 0.03 in0.8 mm
07:10 AM 50.1°F10.1°C 46.1°F7.8°C 86% 9.2 mph W14.8 kmh W 15.0 mph24.1 kmh 29.96 in1014.6 mb - 0.00 in0.0 mm 0.03 in0.8 mm
07:00 AM 50.5°F10.3°C 46.8°F8.2°C 87% 8.1 mph WNW13.0 kmh WNW 12.7 mph20.4 kmh 29.95 in1014.2 mb - 0.00 in0.0 mm 0.03 in0.8 mm
06:50 AM 50.5°F10.3°C 46.8°F8.2°C 87% 8.1 mph W13.0 kmh W 12.7 mph20.4 kmh 29.95 in1014.2 mb - 0.00 in0.0 mm 0.03 in0.8 mm
06:40 AM 50.7°F10.4°C 47.3°F8.5°C 88% 5.8 mph W9.3 kmh W 11.5 mph18.5 kmh 29.95 in1014.2 mb - 0.00 in0.0 mm 0.03 in0.8 mm
06:30 AM 51.0°F10.6°C 47.6°F8.7°C 88% 4.6 mph WNW7.4 kmh WNW 5.8 mph9.3 kmh 29.94 in1013.9 mb - 0.00 in0.0 mm 0.03 in0.8 mm
06:20 AM 51.0°F10.6°C 47.3°F8.5°C 87% 5.8 mph WNW9.3 kmh WNW 15.0 mph24.1 kmh 29.93 in1013.5 mb - 0.00 in0.0 mm 0.03 in0.8 mm
06:10 AM 51.1°F10.6°C 47.7°F8.7°C 88% 8.1 mph W13.0 kmh W 12.7 mph20.4 kmh 29.93 in1013.5 mb - 0.00 in0.0 mm 0.03 in0.8 mm
06:00 AM 51.2°F10.7°C 47.8°F8.8°C 88% 5.8 mph W9.3 kmh W 11.5 mph18.5 kmh 29.93 in1013.5 mb - 0.00 in0.0 mm 0.03 in0.8 mm
05:50 AM 51.3°F10.7°C 47.9°F8.8°C 88% 5.8 mph WNW9.3 kmh WNW 15.0 mph24.1 kmh 29.93 in1013.5 mb - 0.00 in0.0 mm 0.03 in0.8 mm
05:40 AM 51.4°F10.8°C 47.9°F8.8°C 88% 5.8 mph WNW9.3 kmh WNW 8.1 mph13.0 kmh 29.92 in1013.2 mb - 0.00 in0.0 mm 0.03 in0.8 mm
05:30 AM 51.6°F10.9°C 48.2°F9.0°C 88% 9.2 mph WNW14.8 kmh WNW 13.8 mph22.2 kmh 29.93 in1013.5 mb - 0.00 in0.0 mm 0.03 in0.8 mm
05:20 AM 51.8°F11.0°C 48.4°F9.1°C 88% 9.2 mph NW14.8 kmh NW 11.5 mph18.5 kmh 29.93 in1013.5 mb - 0.00 in0.0 mm 0.03 in0.8 mm
05:10 AM 52.0°F11.1°C 48.6°F9.2°C 88% 9.2 mph WNW14.8 kmh WNW 19.6 mph31.5 kmh 29.92 in1013.2 mb - 0.00 in0.0 mm 0.03 in0.8 mm
05:00 AM 52.3°F11.3°C 48.9°F9.4°C 88% 6.9 mph W11.1 kmh W 9.2 mph14.8 kmh 29.92 in1013.2 mb - 0.00 in0.0 mm 0.03 in0.8 mm
04:50 AM 52.4°F11.3°C 48.9°F9.4°C 88% 6.9 mph WNW11.1 kmh WNW 15.0 mph24.1 kmh 29.92 in1013.2 mb - 0.00 in0.0 mm 0.03 in0.8 mm
04:40 AM 52.5°F11.4°C 49.3°F9.6°C 89% 9.2 mph WNW14.8 kmh WNW 19.6 mph31.5 kmh 29.92 in1013.2 mb - 0.00 in0.0 mm 0.03 in0.8 mm
04:30 AM 52.6°F11.4°C 49.4°F9.7°C 89% 5.8 mph W9.3 kmh W 11.5 mph18.5 kmh 29.91 in1012.9 mb - 0.00 in0.0 mm 0.03 in0.8 mm
04:20 AM 52.7°F11.5°C 49.6°F9.8°C 89% 6.9 mph W11.1 kmh W 8.1 mph13.0 kmh 29.93 in1013.5 mb - 0.00 in0.0 mm 0.03 in0.8 mm
04:10 AM 53.0°F11.7°C 49.8°F9.9°C 89% 12.7 mph WNW20.4 kmh WNW 16.1 mph25.9 kmh 29.91 in1012.9 mb - 0.00 in0.0 mm 0.03 in0.8 mm
04:00 AM 53.3°F11.8°C 50.1°F10.1°C 89% 8.1 mph WNW13.0 kmh WNW 9.2 mph14.8 kmh 29.92 in1013.2 mb - 0.00 in0.0 mm 0.03 in0.8 mm
03:50 AM 53.5°F11.9°C 50.6°F10.3°C 90% 8.1 mph W13.0 kmh W 11.5 mph18.5 kmh 29.93 in1013.5 mb - 0.00 in0.0 mm 0.03 in0.8 mm
03:40 AM 53.4°F11.9°C 50.5°F10.3°C 90% 8.1 mph WNW13.0 kmh WNW 12.7 mph20.4 kmh 29.93 in1013.5 mb - 0.00 in0.0 mm 0.03 in0.8 mm
03:30 AM 53.3°F11.8°C 50.4°F10.2°C 90% 8.1 mph WNW13.0 kmh WNW 13.8 mph22.2 kmh 29.92 in1013.2 mb - 0.00 in0.0 mm 0.03 in0.8 mm
03:20 AM 53.3°F11.8°C 50.4°F10.2°C 90% 6.9 mph WNW11.1 kmh WNW 13.8 mph22.2 kmh 29.93 in1013.5 mb - 0.00 in0.0 mm 0.03 in0.8 mm
03:10 AM 53.4°F11.9°C 50.5°F10.3°C 90% 9.2 mph W14.8 kmh W 11.5 mph18.5 kmh 29.92 in1013.2 mb - 0.01 in0.3 mm 0.03 in0.8 mm
03:00 AM 53.9°F12.2°C 51.3°F10.7°C 91% 11.5 mph WNW18.5 kmh WNW 18.4 mph29.6 kmh 29.92 in1013.2 mb - 0.00 in0.0 mm 0.02 in0.5 mm
02:50 AM 54.2°F12.3°C 51.6°F10.9°C 91% 6.9 mph W11.1 kmh W 13.8 mph22.2 kmh 29.92 in1013.2 mb - 0.01 in0.3 mm 0.02 in0.5 mm
02:40 AM 54.7°F12.6°C 52.1°F11.2°C 91% 6.9 mph W11.1 kmh W 13.8 mph22.2 kmh 29.93 in1013.5 mb - 0.02 in0.5 mm 0.02 in0.5 mm
02:30 AM 55.1°F12.8°C 52.8°F11.6°C 92% 6.9 mph WNW11.1 kmh WNW 12.7 mph20.4 kmh 29.93 in1013.5 mb - 0.00 in0.0 mm 0.00 in0.0 mm
02:20 AM 55.4°F13.0°C 53.1°F11.7°C 92% 5.8 mph WSW9.3 kmh WSW 12.7 mph20.4 kmh 29.93 in1013.5 mb - 0.00 in0.0 mm 0.00 in0.0 mm
02:10 AM 55.7°F13.2°C 53.7°F12.1°C 93% 8.1 mph WNW13.0 kmh WNW 15.0 mph24.1 kmh 29.92 in1013.2 mb - 0.00 in0.0 mm 0.00 in0.0 mm
02:00 AM 56.4°F13.6°C 54.4°F12.4°C 93% 8.1 mph W13.0 kmh W 13.8 mph22.2 kmh 29.93 in1013.5 mb - 0.00 in0.0 mm 0.00 in0.0 mm
01:50 AM 56.6°F13.7°C 54.6°F12.6°C 93% 5.8 mph WNW9.3 kmh WNW 11.5 mph18.5 kmh 29.92 in1013.2 mb - 0.00 in0.0 mm 0.00 in0.0 mm
01:40 AM 56.8°F13.8°C 54.8°F12.7°C 93% 6.9 mph WNW11.1 kmh WNW 9.2 mph14.8 kmh 29.93 in1013.5 mb - 0.00 in0.0 mm 0.00 in0.0 mm
01:30 AM 57.1°F13.9°C 55.1°F12.8°C 93% 5.8 mph W9.3 kmh W 6.9 mph11.1 kmh 29.94 in1013.9 mb - 0.00 in0.0 mm 0.00 in0.0 mm
01:20 AM 57.7°F14.3°C 55.7°F13.2°C 93% 6.9 mph WNW11.1 kmh WNW 12.7 mph20.4 kmh 29.94 in1013.9 mb - 0.00 in0.0 mm 0.00 in0.0 mm
01:10 AM 57.8°F14.3°C 55.8°F13.2°C 93% 8.1 mph W13.0 kmh W 11.5 mph18.5 kmh 29.94 in1013.9 mb - 0.00 in0.0 mm 0.00 in0.0 mm
01:00 AM 58.2°F14.6°C 56.2°F13.4°C 93% 8.1 mph WNW13.0 kmh WNW 11.5 mph18.5 kmh 29.94 in1013.9 mb - 0.00 in0.0 mm 0.00 in0.0 mm
12:50 AM 58.3°F14.6°C 56.3°F13.5°C 93% 8.1 mph WNW13.0 kmh WNW 10.4 mph16.7 kmh 29.94 in1013.9 mb - 0.00 in0.0 mm 0.00 in0.0 mm
12:40 AM 58.5°F14.7°C 56.4°F13.6°C 93% 5.8 mph W9.3 kmh W 11.5 mph18.5 kmh 29.94 in1013.9 mb - 0.00 in0.0 mm 0.00 in0.0 mm
12:30 AM 59.2°F15.1°C 57.2°F14.0°C 93% 4.6 mph W7.4 kmh W 6.9 mph11.1 kmh 29.94 in1013.9 mb - 0.00 in0.0 mm 0.00 in0.0 mm
12:20 AM 59.5°F15.3°C 57.4°F14.1°C 93% 3.5 mph W5.6 kmh W 4.6 mph7.4 kmh 29.94 in1013.9 mb - 0.00 in0.0 mm 0.00 in0.0 mm
12:10 AM 59.8°F15.4°C 57.8°F14.3°C 93% 4.6 mph W7.4 kmh W 6.9 mph11.1 kmh 29.95 in1014.2 mb - 0.00 in0.0 mm 0.00 in0.0 mm
12:00 AM 60.2°F15.7°C 58.2°F14.6°C 93% 3.5 mph W5.6 kmh W 5.8 mph9.3 kmh 29.95 in1014.2 mb - 0.00 in0.0 mm 0.00 in0.0 mm